Terminal Aerodrome Forecast
Issued by NWS Houston/Galveston, TX

Home | Current Version | Previous Version | Text Only | Print | Product List | Glossary On
Versions: 1 2 3 4 5 6 7 8 9 10 11 12 13 14 15 16 17 18 19 20 21 22 23 24 25 26 27 28 29 30 31 32 33 34 35 36 37 38 39 40 41 42 43 44 45 46 47 48 49 50
925
FTUS44 KHGX 041559 AAC
TAFGLS
TAF AMD
KGLS 041559Z 0416/0512 04009KT 4SM RA BR VCTS OVC100CB
     FM050000 02016KT 4SM -SHRA BR OVC007
     FM050500 03017KT 4SM -TSRA BR OVC005CB=

USA.gov is the U.S. government's official web portal to all federal, state and local government web resources and services.